Terminal Aerodrome Forecast
Issued by NWS

Home | Current Version | Previous Version | Text Only | Print | Product List | Glossary On
Versions: 1 2 3 4 5 6 7 8 9 10 11 12 13 14
000
FTUS41 KBTV 192339
TAFPBG
TAF
KPBG 192339Z 2000/2024 16009KT P6SM VCSH OVC035
     FM200200 12005KT P6SM VCSH OVC035
     FM200400 12004KT P6SM -RA OVC035
     FM201200 14004KT 3/4SM -RA BR OVC015
     FM201600 11006KT 5SM -RA BR OVC020
     FM201700 18007KT 2SM -RA BR OVC020
     FM201800 21007KT 1SM BR VCSH OVC025=

USA.gov is the U.S. government's official web portal to all federal, state and local government web resources and services.